Time;durP1;ratioP1;P1;durP2;ratioP2;P2;SDS_P1;SDS_P2;PMS_P1;PMS_P2;Temp;Humidity;BMP_temperature;BMP_pressure;BME280_temperature;BME280_humidity;BME280_pressure;Samples;Min_cycle;Max_cycle;Signal;HPM_P1;HPM_P2
2022/07/31 00:50:44;;;;;;;6.15;4.40;;;;;;;15.14;100.00;99135.88;8464003;27;20422;-81
2022/07/31 00:54:45;;;;;;;5.00;3.97;;;;;;;15.16;100.00;99136.34;8452157;28;20043;-82
2022/07/31 00:58:46;;;;;;;6.18;4.18;;;;;;;15.15;100.00;99132.03;8458564;28;20135;-81
2022/07/31 01:02:48;;;;;;;5.88;4.25;;;;;;;15.14;100.00;99141.31;8461189;28;20056;-80
2022/07/31 01:06:48;;;;;;;7.45;4.72;;;;;;;15.21;100.00;99147.00;8461794;28;20055;-80
2022/07/31 01:11:10;;;;;;;5.60;4.20;;;;;;;15.21;100.00;99138.84;8441421;28;20051;-81
2022/07/31 01:15:12;;;;;;;5.25;4.20;;;;;;;15.19;100.00;99132.94;8467085;28;20036;-80
2022/07/31 01:19:28;;;;;;;5.75;4.20;;;;;;;15.15;100.00;99137.47;8460831;28;20047;-79
2022/07/31 01:24:01;;;;;;;7.93;4.40;;;;;;;15.12;100.00;99143.59;8463109;28;20681;-80
2022/07/31 01:28:41;;;;;;;6.03;4.18;;;;;;;15.14;100.00;99130.44;8454137;28;20052;-80
2022/07/31 01:32:47;;;;;;;5.07;4.57;;;;;;;15.16;100.00;99134.44;8355910;28;20056;-80
2022/07/31 01:36:56;;;;;;;6.07;4.50;;;;;;;15.09;100.00;99138.81;8357722;28;20410;-80
2022/07/31 01:40:57;;;;;;;;;;;;;;;15.13;100.00;99128.84;8356255;28;20124;-79
2022/07/31 01:45:00;;;;;;;7.35;4.32;;;;;;;15.08;100.00;99137.22;8338211;28;19925;-80
2022/07/31 01:49:01;;;;;;;6.20;4.22;;;;;;;15.10;100.00;99140.41;8351466;28;20052;-81
2022/07/31 01:53:02;;;;;;;5.97;4.55;;;;;;;15.13;100.00;99142.44;8362507;28;20055;-81
2022/07/31 01:57:04;;;;;;;10.00;4.60;;;;;;;15.08;100.00;99142.66;8361854;28;20434;-80
2022/07/31 02:01:07;;;;;;;7.72;4.50;;;;;;;15.06;100.00;99144.94;8343469;28;20041;-80
2022/07/31 02:05:10;;;;;;;6.95;5.10;;;;;;;15.05;100.00;99137.91;8344193;28;20048;-80
2022/07/31 02:09:11;;;;;;;7.47;4.78;;;;;;;15.06;100.00;99134.06;8392680;28;20048;-78
2022/07/31 02:13:13;;;;;;;5.70;4.45;;;;;;;15.04;100.00;99125.44;8436137;28;20051;-80
2022/07/31 02:17:14;;;;;;;7.00;5.03;;;;;;;15.05;100.00;99127.84;8437676;28;20055;-80
2022/07/31 02:21:15;;;;;;;7.82;4.65;;;;;;;15.10;100.00;99124.09;8436543;28;20069;-80
2022/07/31 02:25:16;;;;;;;10.90;4.85;;;;;;;15.07;100.00;99124.75;8435052;28;20124;-81
2022/07/31 02:29:18;;;;;;;5.38;4.80;;;;;;;15.03;100.00;99112.97;8437818;27;20554;-80
2022/07/31 02:33:22;;;;;;;8.57;4.97;;;;;;;15.04;100.00;99125.44;8431686;28;20060;-81
2022/07/31 02:37:24;;;;;;;11.73;5.50;;;;;;;15.05;100.00;99118.88;8436727;28;20044;-81
2022/07/31 02:41:25;;;;;;;9.20;5.00;;;;;;;15.02;100.00;99114.09;8433841;28;20043;-81
2022/07/31 02:45:26;;;;;;;8.95;4.82;;;;;;;15.00;100.00;99106.28;8436240;28;20070;-81
2022/07/31 02:49:28;;;;;;;11.40;5.30;;;;;;;15.02;100.00;99108.66;8438156;28;20488;-80
2022/07/31 02:53:29;;;;;;;11.77;5.75;;;;;;;15.01;100.00;99116.06;8434651;28;20508;-80
2022/07/31 02:57:30;;;;;;;7.85;5.18;;;;;;;15.01;100.00;99121.50;8424548;28;20432;-81
2022/07/31 03:01:35;;;;;;;9.77;5.60;;;;;;;15.04;100.00;99125.44;8428838;28;20074;-80
2022/07/31 03:05:36;;;;;;;8.05;5.18;;;;;;;15.01;100.00;99120.69;8448852;28;20048;-80
2022/07/31 03:09:36;;;;;;;9.18;5.70;;;;;;;14.98;100.00;99110.47;8431768;28;20503;-81
2022/07/31 03:13:38;;;;;;;9.98;6.70;;;;;;;15.01;100.00;99115.25;8437867;28;20033;-81
2022/07/31 03:17:39;;;;;;;11.10;6.20;;;;;;;15.00;100.00;99113.66;8435920;28;20036;-80
2022/07/31 03:21:41;;;;;;;9.40;6.32;;;;;;;15.00;100.00;99113.66;8433300;28;20064;-81
2022/07/31 03:25:42;;;;;;;9.30;6.25;;;;;;;15.00;100.00;99119.09;8435208;28;20495;-81
2022/07/31 03:29:43;;;;;;;8.38;6.18;;;;;;;15.01;100.00;99120.69;8429799;28;20397;-80
2022/07/31 03:33:44;;;;;;;11.40;6.07;;;;;;;15.02;100.00;99116.81;8430076;28;20132;-80
2022/07/31 03:37:45;;;;;;;9.55;6.80;;;;;;;15.02;100.00;99122.25;8436989;28;20400;-81
2022/07/31 03:41:47;;;;;;;11.52;8.48;;;;;;;15.03;100.00;99123.84;8426724;28;20048;-81
2022/07/31 03:45:49;;;;;;;11.52;8.68;;;;;;;15.00;100.00;99113.66;8426920;28;20044;-81
2022/07/31 03:49:50;;;;;;;13.23;8.30;;;;;;;15.04;100.00;99120.00;8428514;28;20089;-80
2022/07/31 03:53:51;;;;;;;13.20;8.60;;;;;;;15.05;100.00;99121.59;8447617;27;20044;-81
2022/07/31 03:57:53;;;;;;;10.68;8.48;;;;;;;15.04;100.00;99120.00;8428773;28;20075;-80
2022/07/31 04:01:54;;;;;;;13.85;9.20;;;;;;;15.06;100.00;99118.56;8421521;28;20039;-81
2022/07/31 04:05:54;;;;;;;15.65;9.15;;;;;;;15.03;100.00;99113.78;8412989;28;20098;-81
2022/07/31 04:09:55;;;;;;;14.50;9.40;;;;;;;15.02;100.00;99123.06;8430096;28;20051;-81
2022/07/31 04:13:56;;;;;;;13.60;9.10;;;;;;;14.99;100.00;99128.38;8427676;28;20072;-80
2022/07/31 04:17:57;;;;;;;20.30;10.55;;;;;;;14.99;100.00;99122.94;8427751;28;20078;-80
2022/07/31 04:21:59;;;;;;;15.18;9.93;;;;;;;15.02;100.00;99116.81;8428516;28;20051;-80
2022/07/31 04:26:00;;;;;;;14.15;9.27;;;;;;;15.06;100.00;99123.19;8428524;28;20071;-81
2022/07/31 04:30:01;;;;;;;11.85;9.27;;;;;;;15.07;100.00;99125.56;8424004;28;20127;-80
2022/07/31 04:34:03;;;;;;;17.63;9.80;;;;;;;15.09;100.00;99133.38;8426941;28;20477;-80
2022/07/31 04:38:03;;;;;;;15.63;9.63;;;;;;;15.08;100.00;99134.50;8429142;28;20097;-81
2022/07/31 04:42:05;;;;;;;17.95;9.85;;;;;;;15.09;100.00;99128.75;8428472;28;20047;-81
2022/07/31 04:46:05;;;;;;;13.10;10.13;;;;;;;15.09;100.00;99127.94;8428287;28;20148;-81
2022/07/31 04:50:09;;;;;;;14.30;10.15;;;;;;;15.10;100.00;99118.66;8429234;28;20048;-83
2022/07/31 04:54:10;;;;;;;14.93;10.07;;;;;;;15.14;100.00;99130.44;8430377;28;20056;-82
2022/07/31 04:58:12;;;;;;;13.57;10.85;;;;;;;15.19;100.00;99116.63;8391626;28;20056;-83
2022/07/31 05:02:13;;;;;;;15.77;9.30;;;;;;;15.24;100.00;99119.13;8427937;28;20481;-82
2022/07/31 05:06:14;;;;;;;16.77;9.50;;;;;;;15.24;100.00;99119.13;8437257;28;20036;-82
2022/07/31 05:14:34;;;;;;;18.58;8.90;;;;;;;15.18;100.00;99120.47;8443092;28;20048;-83
2022/07/31 05:18:35;;;;;;;20.65;10.68;;;;;;;15.19;100.00;99116.63;8427137;28;20044;-82
2022/07/31 05:22:36;;;;;;;15.85;9.38;;;;;;;15.22;100.00;99115.97;8442824;28;20093;-81
2022/07/31 05:26:38;;;;;;;16.50;9.15;;;;;;;15.22;100.00;99110.53;8442677;28;20123;-81
2022/07/31 05:30:39;;;;;;;17.83;10.13;;;;;;;15.27;100.00;99113.03;8427616;28;20051;-81
2022/07/31 05:34:40;;;;;;;17.85;10.25;;;;;;;15.31;100.00;99119.34;8429628;28;20072;-82
2022/07/31 05:38:41;;;;;;;18.00;10.30;;;;;;;15.34;100.00;99124.09;8398323;28;20119;-80
2022/07/31 05:42:41;;;;;;;21.77;10.35;;;;;;;15.39;100.00;99126.59;8405267;28;20374;-82
2022/07/31 05:46:43;;;;;;;22.42;10.07;;;;;;;15.48;100.00;99113.69;8438072;27;20482;-82
2022/07/31 05:50:45;;;;;;;17.00;10.23;;;;;;;15.48;100.00;99121.06;8433467;28;20072;-83
2022/07/31 05:54:46;;;;;;;12.90;9.13;;;;;;;15.49;100.00;99126.16;8434090;28;20046;-83
2022/07/31 05:58:47;;;;;;;15.45;8.95;;;;;;;15.42;100.00;99119.72;8430978;28;20493;-83
2022/07/31 06:02:48;;;;;;;17.10;9.48;;;;;;;15.42;100.00;99125.16;8433852;28;20051;-83
2022/07/31 06:06:49;;;;;;;21.33;9.20;;;;;;;15.49;100.00;99126.16;8455795;27;20127;-82
2022/07/31 06:10:50;;;;;;;13.77;8.60;;;;;;;15.54;100.00;99120.53;8435803;28;20489;-83
2022/07/31 06:14:51;;;;;;;17.63;9.05;;;;;;;15.48;100.00;99119.16;8433304;28;20070;-82
2022/07/31 06:18:52;;;;;;;12.18;8.88;;;;;;;15.48;100.00;99124.59;8432744;28;20126;-83
2022/07/31 06:22:53;;;;;;;16.52;8.23;;;;;;;15.49;100.00;99125.38;8436971;28;20055;-83
2022/07/31 06:27:00;;;;;;;9.85;8.00;;;;;;;15.48;100.00;99123.78;8448399;28;20209;-82
2022/07/31 06:31:01;;;;;;;10.85;8.30;;;;;;;15.49;100.00;99126.16;8431277;28;20382;-83
2022/07/31 06:35:04;;;;;;;18.25;8.93;;;;;;;15.52;100.00;99113.84;8422029;28;20040;-84
2022/07/31 06:39:05;;;;;;;16.38;8.57;;;;;;;15.54;100.00;99128.72;8459078;27;20055;-82
2022/07/31 06:43:06;;;;;;;13.68;8.00;;;;;;;15.61;100.00;99120.75;8479238;27;20047;-83
2022/07/31 06:47:07;;;;;;;19.30;8.27;;;;;;;15.65;100.00;99120.06;8491301;27;20611;-83
2022/07/31 06:51:08;;;;;;;11.18;8.50;;;;;;;15.75;100.00;99122.34;8496045;27;20063;-84
2022/07/31 06:55:09;;;;;;;15.05;7.80;;;;;;;15.76;100.00;99118.44;8432526;27;20134;-83
2022/07/31 06:59:10;;;;;;;13.02;8.45;;;;;;;15.84;100.00;99120.28;8450327;28;20409;-83
2022/07/31 07:03:11;;;;;;;14.95;8.45;;;;;;;15.82;100.00;99117.09;8438955;27;20134;-83
2022/07/31 07:07:13;;;;;;;14.75;8.88;;;;;;;15.91;100.00;99109.59;8436416;27;20060;-84
2022/07/31 07:11:13;;;;;;;14.48;7.97;;;;;;;16.00;100.00;99107.53;8455056;27;20075;-83
2022/07/31 07:15:15;;;;;;;14.35;8.18;;;;;;;16.05;100.00;99115.47;8407028;28;20391;-84
2022/07/31 07:19:16;;;;;;;11.88;8.27;;;;;;;16.05;100.00;99115.47;8426730;28;20056;-82
2022/07/31 07:23:17;;;;;;;20.50;9.40;;;;;;;16.06;100.00;99122.50;8429393;28;20048;-84
2022/07/31 07:27:18;;;;;;;15.57;9.38;;;;;;;16.11;100.00;99125.00;8428917;28;20068;-83
2022/07/31 07:31:19;;;;;;;12.50;9.23;;;;;;;16.14;100.00;99118.03;8419364;28;20044;-82
2022/07/31 07:35:23;;;;;;;15.70;9.20;;;;;;;16.18;100.00;99119.72;8429754;27;20138;-83
2022/07/31 07:39:24;;;;;;;17.75;9.57;;;;;;;16.19;100.00;99132.22;8431050;28;20048;-83
2022/07/31 07:43:25;;;;;;;15.95;9.48;;;;;;;16.24;100.00;99123.00;8429929;28;20558;-83
2022/07/31 07:47:26;;;;;;;17.27;10.18;;;;;;;16.29;100.00;99112.66;8430435;28;20052;-83
2022/07/31 07:51:27;;;;;;;18.58;11.65;;;;;;;16.35;100.00;99119.44;8428738;28;20040;-83
2022/07/31 07:55:28;;;;;;;17.30;9.90;;;;;;;16.38;100.00;99126.97;8430130;28;20051;-81
2022/07/31 07:59:29;;;;;;;14.77;10.25;;;;;;;16.43;100.00;99123.97;8429660;28;20076;-81
2022/07/31 08:03:30;;;;;;;11.65;9.52;;;;;;;16.54;100.00;99126.22;8430046;28;20051;-81
2022/07/31 08:07:33;;;;;;;19.45;9.63;;;;;;;16.66;100.00;99117.97;8444945;28;20036;-82
2022/07/31 08:11:34;;;;;;;21.85;8.57;;;;;;;16.77;100.00;99127.25;8430764;28;20131;-82
2022/07/31 08:15:35;;;;;;;17.75;9.98;;;;;;;16.92;100.00;99126.47;8440838;28;20051;-81
2022/07/31 08:19:36;;;;;;;15.68;9.15;;;;;;;17.07;100.00;99120.28;8430149;28;20052;-82
2022/07/31 08:23:37;;;;;;;11.27;8.43;;;;;;;17.21;100.00;99128.00;8429781;28;20520;-83
2022/07/31 08:27:38;;;;;;;16.38;8.27;;;;;;;17.28;100.00;99129.00;8428127;28;20051;-82
2022/07/31 08:31:39;;;;;;;14.30;7.75;;;;;;;17.40;100.00;99130.03;8428993;28;20040;-81
2022/07/31 08:35:40;;;;;;;10.15;6.57;;;;;;;17.50;100.00;99134.97;8428179;28;20066;-82
2022/07/31 08:39:41;;;;;;;8.95;6.57;;;;;;;17.68;100.00;99141.66;8428746;28;20524;-81
2022/07/31 08:43:42;;;;;;;11.25;6.93;;;;;;;17.79;99.81;99142.72;8428431;28;20412;-81
2022/07/31 08:47:46;;;;;;;20.20;6.93;;;;;;;17.79;99.76;99137.25;8418458;28;20055;-82
2022/07/31 08:51:48;;;;;;;14.63;7.00;;;;;;;17.76;99.40;99140.72;8406933;28;20058;-82
2022/07/31 08:55:49;;;;;;;9.85;6.60;;;;;;;17.78;98.80;99146.59;8407831;28;20048;-82
2022/07/31 08:59:51;;;;;;;9.82;5.88;;;;;;;17.87;98.79;99147.19;8408004;28;20056;-82
2022/07/31 09:03:53;;;;;;;12.77;5.53;;;;;;;17.97;97.50;99143.91;8399037;28;20055;-82
2022/07/31 09:07:54;;;;;;;11.48;6.32;;;;;;;18.09;98.06;99146.50;8407153;28;20555;-82
2022/07/31 09:11:55;;;;;;;10.55;5.72;;;;;;;18.09;97.09;99141.03;8411575;28;20146;-79
2022/07/31 09:15:58;;;;;;;10.68;5.90;;;;;;;18.09;96.66;99143.78;8423298;28;20059;-81
2022/07/31 09:19:59;;;;;;;14.13;6.30;;;;;;;18.14;96.85;99132.56;8434672;28;20052;-81
2022/07/31 09:24:00;;;;;;;13.25;5.82;;;;;;;18.15;96.67;99134.16;8434528;28;20050;-82
2022/07/31 09:28:04;;;;;;;8.93;5.53;;;;;;;18.11;95.97;99127.03;8433930;28;20044;-80
2022/07/31 09:32:12;;;;;;;11.73;5.28;;;;;;;18.11;96.01;99133.28;8434381;28;20040;-80
2022/07/31 09:36:13;;;;;;;7.18;5.30;;;;;;;18.09;95.92;99124.66;8433901;28;20052;-81
2022/07/31 09:40:15;;;;;;;9.77;5.70;;;;;;;18.04;95.35;99122.19;8434374;28;20036;-82
2022/07/31 09:44:15;;;;;;;9.20;5.22;;;;;;;18.06;95.83;99119.91;8433482;28;20498;-84
2022/07/31 09:48:17;;;;;;;5.68;4.75;;;;;;;18.19;95.45;99122.53;8370984;28;20161;-84
2022/07/31 09:52:18;;;;;;;7.28;4.40;;;;;;;18.30;94.72;99123.50;8433660;28;20040;-81
2022/07/31 09:56:31;;;;;;;8.55;4.50;;;;;;;18.41;92.62;99119.06;8433750;28;20037;-81
2022/07/31 10:00:32;;;;;;;8.02;4.57;;;;;;;18.52;93.21;99125.53;8434206;28;20487;-81
2022/07/31 10:04:37;;;;;;;6.88;3.50;;;;;;;18.60;90.03;99127.31;8433635;28;20052;-81
2022/07/31 10:08:38;;;;;;;8.05;3.63;;;;;;;18.86;90.16;99130.16;8433524;28;20052;-82
2022/07/31 10:12:41;;;;;;;10.52;3.75;;;;;;;19.09;88.67;99121.16;8433112;28;20040;-81
2022/07/31 10:16:43;;;;;;;9.13;3.38;;;;;;;19.22;87.88;99119.81;8432740;28;20050;-82
2022/07/31 10:20:51;;;;;;;13.05;3.95;;;;;;;19.34;87.93;99116.91;8430989;28;20059;-82
2022/07/31 10:24:53;;;;;;;9.95;3.28;;;;;;;19.47;87.05;99114.78;8432135;28;20043;-80
2022/07/31 10:28:54;;;;;;;12.70;3.30;;;;;;;19.56;87.03;99124.34;8431504;28;20044;-80
2022/07/31 10:32:55;;;;;;;8.65;3.35;;;;;;;19.64;86.23;99126.00;8433057;28;20074;-84
2022/07/31 10:37:02;;;;;;;6.90;3.10;;;;;;;19.72;83.77;99133.16;8432534;28;20047;-81
2022/07/31 10:41:31;;;;;;;7.13;2.80;;;;;;;19.83;83.03;99127.09;8449552;27;20075;-82
2022/07/31 10:45:52;;;;;;;7.25;3.20;;;;;;;19.91;80.77;99117.78;8357076;28;20192;-82
2022/07/31 10:49:53;;;;;;;6.82;2.65;;;;;;;19.98;79.71;99117.91;8360468;28;20044;-81
2022/07/31 10:54:01;;;;;;;9.32;2.92;;;;;;;20.08;76.92;99123.53;8359124;28;20053;-82
2022/07/31 10:58:15;;;;;;;8.32;2.40;;;;;;;20.13;75.74;99125.16;8362032;28;20560;-82
2022/07/31 11:02:33;;;;;;;4.82;2.50;;;;;;;20.20;77.00;99125.22;8363163;28;20048;-81
2022/07/31 11:06:39;;;;;;;3.25;2.20;;;;;;;20.26;75.90;99118.25;8363024;28;20116;-80
2022/07/31 11:10:51;;;;;;;6.00;2.30;;;;;;;20.36;75.50;99123.13;8362395;28;20041;-81
2022/07/31 11:14:52;;;;;;;13.38;2.60;;;;;;;20.42;76.50;99116.16;8358165;28;20053;-81
2022/07/31 11:18:58;;;;;;;5.75;2.00;;;;;;;20.50;74.78;99117.81;8357292;28;20469;-80
2022/07/31 11:23:05;;;;;;;6.50;1.98;;;;;;;20.54;72.71;99118.66;8421811;28;20052;-80
2022/07/31 11:27:06;;;;;;;3.70;2.00;;;;;;;20.54;70.23;99118.66;8430820;28;20051;-81
2022/07/31 11:31:08;;;;;;;4.93;2.08;;;;;;;20.61;71.81;99124.22;8430691;28;20072;-81
2022/07/31 11:35:09;;;;;;;4.38;2.00;;;;;;;20.75;72.31;99112.59;8423350;28;20052;-81
2022/07/31 11:39:11;;;;;;;3.67;1.90;;;;;;;20.89;72.70;99112.75;8428606;28;20052;-79
2022/07/31 11:43:12;;;;;;;7.68;2.40;;;;;;;21.03;72.46;99101.13;8429292;28;20044;-79
2022/07/31 11:47:14;;;;;;;2.25;1.58;;;;;;;21.11;72.55;99112.94;8431018;28;20076;-80
2022/07/31 11:51:18;;;;;;;7.15;2.42;;;;;;;21.25;72.76;99113.91;8429331;28;20470;-80
2022/07/31 11:55:19;;;;;;;3.67;2.00;;;;;;;21.29;70.83;99102.94;8423472;28;20055;-81
2022/07/31 11:59:31;;;;;;;5.75;1.90;;;;;;;21.21;68.64;99107.59;8428361;28;20054;-80
2022/07/31 12:03:37;;;;;;;3.53;1.80;;;;;;;21.33;69.61;99099.06;8420658;28;20039;-80
2022/07/31 12:07:42;;;;;;;3.50;1.90;;;;;;;21.34;67.03;99100.66;8429978;28;20096;-79
2022/07/31 12:11:42;;;;;;;3.75;1.67;;;;;;;21.35;68.22;99102.22;8429949;28;20093;-81
2022/07/31 12:16:04;;;;;;;3.13;1.80;;;;;;;21.37;66.12;99099.06;8410602;28;20128;-80
2022/07/31 12:20:06;;;;;;;5.40;1.60;;;;;;;21.45;66.35;99107.00;8416249;28;20056;-81
2022/07/31 12:24:12;;;;;;;5.07;1.50;;;;;;;21.64;66.20;99096.94;8409378;28;20105;-81
2022/07/31 12:28:15;;;;;;;4.97;1.67;;;;;;;21.75;64.33;99103.28;8427010;28;20047;-81
2022/07/31 12:32:24;;;;;;;4.05;1.52;;;;;;;21.75;62.65;99097.78;8427765;28;20040;-82
2022/07/31 12:36:25;;;;;;;5.15;1.60;;;;;;;21.74;62.07;99101.69;8428651;28;20546;-82
2022/07/31 12:40:27;;;;;;;4.75;1.50;;;;;;;21.83;60.83;99099.44;8429305;28;20055;-83
2022/07/31 12:44:28;;;;;;;11.30;1.70;;;;;;;22.03;61.10;99103.50;8428902;28;20343;-83
2022/07/31 12:48:32;;;;;;;4.82;1.50;;;;;;;22.53;60.26;99103.69;8448065;27;20052;-84
2022/07/31 12:52:33;;;;;;;6.20;1.77;;;;;;;22.86;59.15;99099.88;8414782;28;20085;-82
2022/07/31 12:56:36;;;;;;;4.38;1.85;;;;;;;23.14;58.77;99111.75;8429074;28;20367;-82
2022/07/31 13:11:52;;;;;;;4.30;1.58;;;;;;;23.50;55.39;99100.75;8373906;27;1475416;-81
2022/07/31 13:15:53;;;;;;;4.25;1.52;;;;;;;23.71;56.83;99100.72;8388366;28;20515;-81
2022/07/31 13:19:55;;;;;;;4.00;1.33;;;;;;;23.69;55.74;99092.03;8383344;28;20162;-81
2022/07/31 13:23:57;;;;;;;11.05;2.20;;;;;;;23.72;54.56;99096.78;8371878;28;20068;-80
2022/07/31 13:27:58;;;;;;;4.20;1.75;;;;;;;23.77;55.12;99088.09;8376048;28;20492;-81
2022/07/31 13:32:00;;;;;;;4.88;3.05;;;;;;;23.87;55.50;99087.28;8349038;28;20071;-81
2022/07/31 13:36:01;;;;;;;8.02;1.38;;;;;;;24.16;54.34;99081.69;8388065;28;20502;-81
2022/07/31 13:40:02;;;;;;;2.53;1.67;;;;;;;25.58;48.83;99085.19;8379099;28;20045;-81
2022/07/31 13:44:03;;;;;;;3.67;1.52;;;;;;;26.61;44.44;99080.47;8360007;28;20044;-81
2022/07/31 13:48:05;;;;;;;8.90;5.10;;;;;;;26.51;43.53;99084.16;8384559;28;20041;-80
2022/07/31 13:52:06;;;;;;;1.63;1.27;;;;;;;28.20;38.80;99077.06;8386102;28;20060;-80
2022/07/31 13:56:07;;;;;;;1.95;1.40;;;;;;;29.57;36.58;99073.13;8386938;28;20033;-78
2022/07/31 14:00:09;;;;;;;3.75;1.52;;;;;;;29.96;36.79;99072.09;8380392;28;20032;-78
2022/07/31 14:04:11;;;;;;;4.38;1.67;;;;;;;30.96;34.64;99069.94;8383292;28;20048;-79
2022/07/31 14:08:12;;;;;;;3.05;1.48;;;;;;;32.24;33.41;99072.78;8377597;28;20040;-78
2022/07/31 14:12:14;;;;;;;4.13;1.33;;;;;;;33.03;32.61;99062.94;8367526;28;20045;-78
2022/07/31 14:16:15;;;;;;;4.22;1.35;;;;;;;33.36;30.64;99070.81;8358723;28;20056;-79
2022/07/31 14:20:16;;;;;;;3.33;2.45;;;;;;;33.77;29.80;99072.28;8359117;28;20420;-78
2022/07/31 14:24:17;;;;;;;3.33;1.48;;;;;;;34.75;28.75;99077.44;8347177;28;20052;-79
2022/07/31 14:28:18;;;;;;;2.90;1.25;;;;;;;34.30;28.03;99076.31;8361828;28;20061;-78
2022/07/31 14:32:20;;;;;;;3.58;1.55;;;;;;;34.79;28.43;99074.50;8358409;28;20135;-78
2022/07/31 14:36:22;;;;;;;20.02;12.57;;;;;;;35.84;27.17;99064.84;8353575;28;20052;-80
2022/07/31 14:40:22;;;;;;;3.75;1.30;;;;;;;36.78;26.95;99068.59;8365062;28;20053;-80
2022/07/31 14:44:23;;;;;;;6.35;1.13;;;;;;;36.87;26.17;99071.28;8310895;28;20060;-80
2022/07/31 14:48:26;;;;;;;2.40;1.20;;;;;;;36.53;24.83;99063.56;8347707;28;20140;-80
2022/07/31 14:52:27;;;;;;;7.88;1.20;;;;;;;36.80;24.78;99060.44;8341168;28;20052;-79
2022/07/31 14:56:28;;;;;;;1.58;1.10;;;;;;;37.61;24.79;99060.59;8361845;28;20038;-80
2022/07/31 15:00:29;;;;;;;1.25;1.00;;;;;;;37.97;23.75;99059.97;8324771;28;20045;-80
2022/07/31 15:04:32;;;;;;;1.35;1.10;;;;;;;37.69;24.11;99056.09;8349956;28;20103;-79
2022/07/31 15:08:35;;;;;;;2.33;1.17;;;;;;;37.72;23.83;99055.09;8346629;28;20041;-79
2022/07/31 15:12:36;;;;;;;4.43;1.20;;;;;;;38.03;23.73;99052.38;8367706;28;20052;-80
2022/07/31 15:16:37;;;;;;;5.18;1.20;;;;;;;38.02;22.97;99056.47;8344298;28;20853;-78
2022/07/31 15:20:40;;;;;;;3.95;1.13;;;;;;;37.82;23.27;99052.88;8328961;28;20511;-80
2022/07/31 15:24:41;;;;;;;2.03;1.00;;;;;;;37.61;23.64;99054.94;8358017;28;20049;-80
2022/07/31 15:28:45;;;;;;;3.28;1.27;;;;;;;37.54;23.46;99049.72;8350093;28;20064;-80
2022/07/31 15:32:46;;;;;;;3.03;1.00;;;;;;;36.11;24.47;99061.78;8328957;28;20511;-79
2022/07/31 15:36:47;;;;;;;3.13;1.08;;;;;;;34.09;26.53;99048.44;8351204;28;20081;-82
2022/07/31 15:40:48;;;;;;;3.03;1.00;;;;;;;32.07;28.04;99051.81;8343141;28;20094;-82
2022/07/31 15:44:51;;;;;;;3.33;0.95;;;;;;;30.85;29.41;99044.41;8353702;28;20082;-80
2022/07/31 15:48:51;;;;;;;6.22;1.10;;;;;;;30.09;32.31;99042.28;8360585;28;20112;-81
2022/07/31 15:52:52;;;;;;;4.78;1.30;;;;;;;29.48;33.12;99039.56;8333025;28;20046;-81
2022/07/31 15:56:53;;;;;;;4.72;1.05;;;;;;;28.84;33.86;99032.81;8310793;28;20045;-80
2022/07/31 16:00:54;;;;;;;1.95;1.10;;;;;;;28.52;33.84;99027.16;8324876;28;20052;-80
2022/07/31 16:04:55;;;;;;;1.50;1.00;;;;;;;28.06;34.88;99028.91;8361405;28;20485;-80
2022/07/31 16:08:56;;;;;;;2.28;1.30;;;;;;;27.74;35.35;99034.31;8357605;28;20057;-81
2022/07/31 16:12:58;;;;;;;2.42;1.10;;;;;;;27.44;36.00;99026.13;8341837;28;20558;-81
2022/07/31 16:16:58;;;;;;;3.38;1.30;;;;;;;27.01;36.34;99037.16;8344537;28;20128;-80
2022/07/31 16:20:59;;;;;;;2.50;1.15;;;;;;;26.69;36.94;99032.09;8348439;28;20076;-81
2022/07/31 16:25:01;;;;;;;2.58;0.93;;;;;;;26.46;37.79;99025.28;8324864;28;20045;-80
2022/07/31 16:29:02;;;;;;;2.60;1.30;;;;;;;26.28;38.54;99021.97;8358455;28;20411;-81
2022/07/31 16:33:03;;;;;;;2.80;1.00;;;;;;;26.00;39.38;99019.53;8345097;28;20497;-80
2022/07/31 16:37:04;;;;;;;2.08;1.10;;;;;;;25.84;39.00;99019.34;8353871;28;20045;-83
2022/07/31 16:41:05;;;;;;;3.72;1.38;;;;;;;25.57;39.05;99014.50;8351652;28;20045;-77
2022/07/31 16:45:07;;;;;;;2.58;1.13;;;;;;;25.39;39.48;99013.84;8351785;28;20135;-77
2022/07/31 16:49:08;;;;;;;2.78;1.27;;;;;;;25.22;40.09;99014.81;8318210;28;20041;-78
2022/07/31 16:53:09;;;;;;;4.57;1.20;;;;;;;25.00;40.97;99010.66;8356604;28;20053;-78
2022/07/31 16:57:09;;;;;;;1.90;1.38;;;;;;;24.75;41.67;99003.31;8323736;28;20248;-78
2022/07/31 17:01:11;;;;;;;5.00;1.10;;;;;;;24.50;42.71;99013.75;8340735;28;20108;-79
2022/07/31 17:05:11;;;;;;;4.35;1.05;;;;;;;24.19;44.39;99009.19;8340454;28;20469;-76
2022/07/31 17:09:13;;;;;;;5.70;1.45;;;;;;;24.02;44.89;99012.78;8337453;28;20052;-75
2022/07/31 17:13:14;;;;;;;1.90;1.23;;;;;;;23.83;45.43;99009.31;8329831;28;20037;-77
2022/07/31 17:17:17;;;;;;;8.00;1.30;;;;;;;23.69;45.61;99009.34;8346330;28;20041;-76
2022/07/31 17:21:18;;;;;;;2.35;1.13;;;;;;;23.54;46.07;99007.81;8355308;28;20404;-76
2022/07/31 17:25:20;;;;;;;2.42;1.20;;;;;;;23.28;47.70;99010.97;8357538;28;20078;-76
2022/07/31 17:29:21;;;;;;;4.35;1.30;;;;;;;22.97;48.99;99013.34;8343822;28;20103;-76
2022/07/31 17:33:22;;;;;;;2.40;1.20;;;;;;;22.85;49.47;99027.50;8357336;28;20044;-77
2022/07/31 17:37:23;;;;;;;4.65;1.15;;;;;;;22.57;50.45;99021.94;8303057;28;20191;-77
2022/07/31 17:41:24;;;;;;;4.05;1.20;;;;;;;22.32;51.79;99027.38;8355141;28;20068;-77
2022/07/31 17:45:26;;;;;;;2.83;1.30;;;;;;;22.20;52.77;99025.78;8354027;28;20459;-76
2022/07/31 17:49:28;;;;;;;2.08;1.38;;;;;;;22.05;53.85;99024.13;8365339;28;20098;-76
2022/07/31 17:53:28;;;;;;;2.60;1.30;;;;;;;21.87;55.53;99028.75;8363671;28;20385;-77
2022/07/31 17:57:31;;;;;;;2.40;1.45;;;;;;;21.70;57.14;99030.22;8347549;28;20047;-76
2022/07/31 18:01:33;;;;;;;8.77;2.80;;;;;;;21.55;57.88;99027.78;8349586;28;20049;-76
2022/07/31 18:05:34;;;;;;;5.20;3.50;;;;;;;21.34;59.10;99031.97;8359601;28;20045;-76
2022/07/31 18:09:35;;;;;;;5.55;3.40;;;;;;;21.16;60.00;99033.00;8353553;28;20052;-79
2022/07/31 18:13:36;;;;;;;4.85;3.30;;;;;;;20.98;61.01;99032.84;8355420;28;20494;-80
2022/07/31 18:17:40;;;;;;;8.35;3.33;;;;;;;20.80;61.65;99027.19;8349538;28;20048;-79
2022/07/31 18:21:41;;;;;;;4.97;2.88;;;;;;;20.62;62.20;99031.72;8343944;28;20428;-80
2022/07/31 18:25:42;;;;;;;5.97;2.13;;;;;;;20.45;62.93;99027.63;8325202;28;20056;-79
2022/07/31 18:29:43;;;;;;;5.20;2.15;;;;;;;20.34;63.46;99032.22;8361283;28;20153;-79
2022/07/31 18:33:44;;;;;;;7.30;2.80;;;;;;;20.16;64.41;99036.66;8360656;28;20507;-79
2022/07/31 18:37:45;;;;;;;15.25;3.00;;;;;;;19.98;65.25;99036.47;8362106;28;20049;-79
2022/07/31 18:41:47;;;;;;;7.82;3.15;;;;;;;19.85;65.75;99031.56;8358815;28;20261;-79
2022/07/31 18:45:48;;;;;;;11.95;3.20;;;;;;;19.70;66.39;99042.34;8372803;28;20049;-81
2022/07/31 18:49:49;;;;;;;13.32;5.05;;;;;;;19.54;66.86;99049.94;8360499;28;20057;-78
2022/07/31 18:53:51;;;;;;;10.55;4.72;;;;;;;19.40;67.37;99049.72;8324025;28;20103;-78
2022/07/31 18:57:52;;;;;;;14.48;3.67;;;;;;;19.28;68.10;99058.13;8353458;28;20065;-78
2022/07/31 19:01:55;;;;;;;7.32;2.92;;;;;;;19.11;69.02;99064.09;8359496;28;20040;-78
2022/07/31 19:05:57;;;;;;;13.68;4.40;;;;;;;19.00;69.37;99074.88;8353901;28;20043;-78
2022/07/31 19:09:58;;;;;;;10.27;4.18;;;;;;;18.85;70.05;99079.31;8355319;28;20551;-79
2022/07/31 19:13:59;;;;;;;13.20;5.32;;;;;;;18.72;70.80;99086.09;8359755;28;20054;-78
2022/07/31 19:18:01;;;;;;;17.15;5.50;;;;;;;18.61;71.03;99085.13;8357661;28;20049;-78
2022/07/31 19:22:02;;;;;;;8.82;2.90;;;;;;;18.51;71.00;99080.19;8354825;28;20049;-79
2022/07/31 19:26:04;;;;;;;5.35;2.38;;;;;;;18.43;71.18;99083.94;8352021;28;20049;-79
2022/07/31 19:30:06;;;;;;;10.15;2.20;;;;;;;18.35;71.23;99090.41;8319646;28;20049;-79
2022/07/31 19:34:08;;;;;;;11.98;4.22;;;;;;;18.21;71.56;99081.94;8348745;28;20041;-79
2022/07/31 19:38:09;;;;;;;9.65;3.50;;;;;;;18.08;72.05;99095.72;8288459;28;20067;-79
2022/07/31 19:42:11;;;;;;;7.05;4.13;;;;;;;17.95;72.57;99097.03;8317256;28;20041;-79
2022/07/31 19:46:13;;;;;;;12.15;3.90;;;;;;;17.84;73.26;99096.00;8343591;28;20044;-78
2022/07/31 19:50:14;;;;;;;6.05;2.83;;;;;;;17.77;73.55;99087.63;8362258;28;20483;-79
2022/07/31 19:54:15;;;;;;;11.20;2.75;;;;;;;17.69;73.65;99088.63;8343396;28;20107;-81